Current | Forecast
Updated: 5:00 PM JST on April 30, 2017
Observed at Nakashibetsu, Japan
Temperature 54°F
Humidity 58%
Dew Point 39°F
Wind South at 15 mph
Pressure 29.68 in (Rising)
Conditions Mostly Cloudy
Visibility 6.2 miles
UV 0 out of 16
Clouds (FEW) : 3000 ft
Mostly Cloudy (BKN) : 10000 ft
Yesterday's Maximum 61°F
Yesterday's Minimum 46°F approx.
Yesterday's Heating Degree Days 11 approx.
Sunrise4:12 AM JST
Sunset6:17 PM JST
Moon Rise7:22 AM JST
Moon Set10:28 PM JST
Moon PhaseMoon Phase
Waxing Crescent
Raw METARMETAR RJCN 300800Z 17013KT 140V200 9999 FEW030 BKN100 12/04 Q1005


Monday
. High: 55° F.
Tuesday
. High: 55° F.
Wednesday
. High: 59° F.
Thursday
. High: 57° F.
Friday
. High: 55° F.
Saturday
. High: 55° F.
Sunday
. High: 48° F.
Monday
. High: 53° F.

Units: English | Metric

Find the Weather for any City, State or Zipcode, or Country:

U.S. State List | Severe Weather | Tropical Storms | Ski Conditions
United States | Canada | Central America | South America | Asia | Europe | Australia | Africa | Islands

Weather Underground

© Copyright 2017
The Weather Company, LLC